sensor_id;sensor_type;location;lat;lon;timestamp;P1;durP1;ratioP1;P2;durP2;ratioP2
8411;SDS011;4243;49.296;11.348;2022-07-29T00:00:14;130.77;;;28.00;;
8411;SDS011;4243;49.296;11.348;2022-07-29T00:02:41;131.87;;;29.57;;
8411;SDS011;4243;49.296;11.348;2022-07-29T00:05:09;132.17;;;30.30;;
8411;SDS011;4243;49.296;11.348;2022-07-29T00:07:39;129.87;;;27.33;;
8411;SDS011;4243;49.296;11.348;2022-07-29T00:10:07;132.77;;;32.27;;
8411;SDS011;4243;49.296;11.348;2022-07-29T00:12:34;130.50;;;27.77;;
8411;SDS011;4243;49.296;11.348;2022-07-29T00:15:03;130.47;;;27.57;;
8411;SDS011;4243;49.296;11.348;2022-07-29T00:17:31;131.03;;;29.40;;
8411;SDS011;4243;49.296;11.348;2022-07-29T00:20:00;130.60;;;29.40;;
8411;SDS011;4243;49.296;11.348;2022-07-29T00:22:27;130.57;;;28.37;;
8411;SDS011;4243;49.296;11.348;2022-07-29T00:24:55;132.27;;;29.97;;
8411;SDS011;4243;49.296;11.348;2022-07-29T00:27:22;129.70;;;27.20;;
8411;SDS011;4243;49.296;11.348;2022-07-29T00:29:50;131.00;;;28.63;;
8411;SDS011;4243;49.296;11.348;2022-07-29T00:32:17;129.37;;;26.47;;
8411;SDS011;4243;49.296;11.348;2022-07-29T00:34:45;127.67;;;27.60;;
8411;SDS011;4243;49.296;11.348;2022-07-29T00:37:31;130.37;;;27.83;;
8411;SDS011;4243;49.296;11.348;2022-07-29T00:39:58;130.17;;;26.57;;
8411;SDS011;4243;49.296;11.348;2022-07-29T00:42:26;129.50;;;26.17;;
8411;SDS011;4243;49.296;11.348;2022-07-29T00:44:54;130.57;;;28.00;;
8411;SDS011;4243;49.296;11.348;2022-07-29T00:47:21;131.17;;;29.37;;
8411;SDS011;4243;49.296;11.348;2022-07-29T00:49:49;130.07;;;28.47;;
8411;SDS011;4243;49.296;11.348;2022-07-29T00:52:16;131.10;;;29.10;;
8411;SDS011;4243;49.296;11.348;2022-07-29T00:54:44;130.80;;;28.40;;
8411;SDS011;4243;49.296;11.348;2022-07-29T00:57:11;131.43;;;29.40;;
8411;SDS011;4243;49.296;11.348;2022-07-29T00:59:39;129.73;;;27.67;;
8411;SDS011;4243;49.296;11.348;2022-07-29T01:02:07;129.00;;;26.17;;
8411;SDS011;4243;49.296;11.348;2022-07-29T01:04:34;129.47;;;27.20;;
8411;SDS011;4243;49.296;11.348;2022-07-29T01:07:02;128.37;;;21.87;;
8411;SDS011;4243;49.296;11.348;2022-07-29T01:09:34;130.73;;;26.07;;
8411;SDS011;4243;49.296;11.348;2022-07-29T01:12:19;127.50;;;23.93;;
8411;SDS011;4243;49.296;11.348;2022-07-29T01:14:51;127.37;;;23.37;;
8411;SDS011;4243;49.296;11.348;2022-07-29T01:25:42;126.13;;;19.30;;
8411;SDS011;4243;49.296;11.348;2022-07-29T01:29:05;125.77;;;19.20;;
8411;SDS011;4243;49.296;11.348;2022-07-29T01:32:10;123.57;;;15.73;;
8411;SDS011;4243;49.296;11.348;2022-07-29T01:34:56;125.20;;;16.93;;
8411;SDS011;4243;49.296;11.348;2022-07-29T01:37:37;124.90;;;16.67;;
8411;SDS011;4243;49.296;11.348;2022-07-29T01:40:42;124.60;;;15.97;;
8411;SDS011;4243;49.296;11.348;2022-07-29T01:43:21;124.17;;;16.10;;
8411;SDS011;4243;49.296;11.348;2022-07-29T01:46:00;125.17;;;16.50;;
8411;SDS011;4243;49.296;11.348;2022-07-29T01:51:20;126.57;;;19.67;;
8411;SDS011;4243;49.296;11.348;2022-07-29T01:54:40;125.33;;;17.97;;
8411;SDS011;4243;49.296;11.348;2022-07-29T01:57:13;123.23;;;15.10;;
8411;SDS011;4243;49.296;11.348;2022-07-29T01:59:46;124.90;;;15.87;;
8411;SDS011;4243;49.296;11.348;2022-07-29T02:02:17;123.67;;;14.50;;
8411;SDS011;4243;49.296;11.348;2022-07-29T02:04:46;124.43;;;14.60;;
8411;SDS011;4243;49.296;11.348;2022-07-29T02:07:18;123.57;;;15.00;;
8411;SDS011;4243;49.296;11.348;2022-07-29T02:09:49;123.80;;;14.17;;
8411;SDS011;4243;49.296;11.348;2022-07-29T02:12:19;122.17;;;15.13;;
8411;SDS011;4243;49.296;11.348;2022-07-29T02:14:49;122.40;;;14.60;;
8411;SDS011;4243;49.296;11.348;2022-07-29T02:17:22;122.90;;;12.57;;
8411;SDS011;4243;49.296;11.348;2022-07-29T02:20:00;123.70;;;13.60;;
8411;SDS011;4243;49.296;11.348;2022-07-29T02:22:31;121.63;;;14.03;;
8411;SDS011;4243;49.296;11.348;2022-07-29T02:25:04;123.07;;;12.07;;
8411;SDS011;4243;49.296;11.348;2022-07-29T02:27:39;122.67;;;13.63;;
8411;SDS011;4243;49.296;11.348;2022-07-29T02:30:08;123.37;;;13.37;;
8411;SDS011;4243;49.296;11.348;2022-07-29T02:32:39;124.97;;;15.10;;
8411;SDS011;4243;49.296;11.348;2022-07-29T02:35:09;122.20;;;13.10;;
8411;SDS011;4243;49.296;11.348;2022-07-29T02:37:40;123.00;;;12.43;;
8411;SDS011;4243;49.296;11.348;2022-07-29T02:40:13;122.70;;;12.60;;
8411;SDS011;4243;49.296;11.348;2022-07-29T02:42:42;124.17;;;14.10;;
8411;SDS011;4243;49.296;11.348;2022-07-29T02:45:12;123.93;;;12.63;;
8411;SDS011;4243;49.296;11.348;2022-07-29T02:47:41;123.27;;;13.90;;
8411;SDS011;4243;49.296;11.348;2022-07-29T02:50:17;123.07;;;12.03;;
8411;SDS011;4243;49.296;11.348;2022-07-29T02:53:18;122.60;;;13.10;;
8411;SDS011;4243;49.296;11.348;2022-07-29T02:55:56;122.27;;;12.17;;
8411;SDS011;4243;49.296;11.348;2022-07-29T02:58:40;123.37;;;12.50;;
8411;SDS011;4243;49.296;11.348;2022-07-29T03:01:14;122.40;;;11.83;;
8411;SDS011;4243;49.296;11.348;2022-07-29T03:03:48;127.60;;;11.97;;
8411;SDS011;4243;49.296;11.348;2022-07-29T03:06:20;122.50;;;11.20;;
8411;SDS011;4243;49.296;11.348;2022-07-29T03:09:02;122.80;;;10.50;;
8411;SDS011;4243;49.296;11.348;2022-07-29T03:11:37;122.47;;;12.03;;
8411;SDS011;4243;49.296;11.348;2022-07-29T03:14:16;121.27;;;10.83;;
8411;SDS011;4243;49.296;11.348;2022-07-29T03:16:46;122.37;;;11.47;;
8411;SDS011;4243;49.296;11.348;2022-07-29T03:19:15;122.17;;;10.73;;
8411;SDS011;4243;49.296;11.348;2022-07-29T03:21:44;122.40;;;10.83;;
8411;SDS011;4243;49.296;11.348;2022-07-29T03:24:23;121.80;;;11.00;;
8411;SDS011;4243;49.296;11.348;2022-07-29T03:26:59;122.57;;;10.00;;
8411;SDS011;4243;49.296;11.348;2022-07-29T03:29:27;122.40;;;11.07;;
8411;SDS011;4243;49.296;11.348;2022-07-29T03:31:59;123.17;;;12.13;;
8411;SDS011;4243;49.296;11.348;2022-07-29T03:34:34;122.00;;;9.50;;
8411;SDS011;4243;49.296;11.348;2022-07-29T03:37:04;120.07;;;9.00;;
8411;SDS011;4243;49.296;11.348;2022-07-29T03:39:34;121.40;;;10.67;;
8411;SDS011;4243;49.296;11.348;2022-07-29T03:42:06;123.50;;;10.50;;
8411;SDS011;4243;49.296;11.348;2022-07-29T03:44:38;120.70;;;11.20;;
8411;SDS011;4243;49.296;11.348;2022-07-29T03:47:11;119.23;;;9.20;;
8411;SDS011;4243;49.296;11.348;2022-07-29T03:49:41;121.20;;;11.27;;
8411;SDS011;4243;49.296;11.348;2022-07-29T03:52:13;122.53;;;10.90;;
8411;SDS011;4243;49.296;11.348;2022-07-29T03:54:41;120.80;;;9.97;;
8411;SDS011;4243;49.296;11.348;2022-07-29T03:57:09;120.03;;;9.50;;
8411;SDS011;4243;49.296;11.348;2022-07-29T03:59:38;121.87;;;11.00;;
8411;SDS011;4243;49.296;11.348;2022-07-29T04:02:07;121.80;;;9.80;;
8411;SDS011;4243;49.296;11.348;2022-07-29T04:04:37;123.50;;;10.30;;
8411;SDS011;4243;49.296;11.348;2022-07-29T04:07:05;121.20;;;9.60;;
8411;SDS011;4243;49.296;11.348;2022-07-29T04:09:33;120.80;;;10.03;;
8411;SDS011;4243;49.296;11.348;2022-07-29T04:12:00;121.37;;;9.50;;
8411;SDS011;4243;49.296;11.348;2022-07-29T04:14:33;121.47;;;9.87;;
8411;SDS011;4243;49.296;11.348;2022-07-29T04:17:02;120.07;;;8.80;;
8411;SDS011;4243;49.296;11.348;2022-07-29T04:19:31;120.60;;;9.13;;
8411;SDS011;4243;49.296;11.348;2022-07-29T04:21:59;122.50;;;9.40;;
8411;SDS011;4243;49.296;11.348;2022-07-29T04:24:27;121.50;;;9.67;;
8411;SDS011;4243;49.296;11.348;2022-07-29T04:26:55;120.30;;;9.00;;
8411;SDS011;4243;49.296;11.348;2022-07-29T04:29:22;121.47;;;8.87;;
8411;SDS011;4243;49.296;11.348;2022-07-29T04:31:49;120.77;;;8.00;;
8411;SDS011;4243;49.296;11.348;2022-07-29T04:34:17;121.80;;;8.57;;
8411;SDS011;4243;49.296;11.348;2022-07-29T04:36:45;121.00;;;8.73;;
8411;SDS011;4243;49.296;11.348;2022-07-29T04:39:13;121.87;;;8.90;;
8411;SDS011;4243;49.296;11.348;2022-07-29T04:41:47;121.17;;;8.93;;
8411;SDS011;4243;49.296;11.348;2022-07-29T04:44:17;120.33;;;7.83;;
8411;SDS011;4243;49.296;11.348;2022-07-29T04:46:45;118.90;;;7.30;;
8411;SDS011;4243;49.296;11.348;2022-07-29T04:49:13;119.80;;;7.73;;
8411;SDS011;4243;49.296;11.348;2022-07-29T04:51:40;120.50;;;7.70;;
8411;SDS011;4243;49.296;11.348;2022-07-29T04:54:08;119.87;;;6.63;;
8411;SDS011;4243;49.296;11.348;2022-07-29T04:56:35;119.60;;;6.70;;
8411;SDS011;4243;49.296;11.348;2022-07-29T04:59:03;119.20;;;6.77;;
8411;SDS011;4243;49.296;11.348;2022-07-29T05:01:30;122.53;;;7.47;;
8411;SDS011;4243;49.296;11.348;2022-07-29T05:03:58;119.83;;;6.00;;
8411;SDS011;4243;49.296;11.348;2022-07-29T05:06:26;120.00;;;6.27;;
8411;SDS011;4243;49.296;11.348;2022-07-29T05:08:53;119.40;;;6.10;;
8411;SDS011;4243;49.296;11.348;2022-07-29T05:11:21;120.17;;;5.60;;
8411;SDS011;4243;49.296;11.348;2022-07-29T05:13:55;119.23;;;5.93;;
8411;SDS011;4243;49.296;11.348;2022-07-29T05:16:22;118.83;;;5.90;;
8411;SDS011;4243;49.296;11.348;2022-07-29T05:18:50;119.90;;;5.87;;
8411;SDS011;4243;49.296;11.348;2022-07-29T05:21:17;121.00;;;6.10;;
8411;SDS011;4243;49.296;11.348;2022-07-29T05:23:45;121.17;;;6.53;;
8411;SDS011;4243;49.296;11.348;2022-07-29T05:26:12;122.90;;;6.50;;
8411;SDS011;4243;49.296;11.348;2022-07-29T05:28:40;120.50;;;6.47;;
8411;SDS011;4243;49.296;11.348;2022-07-29T05:31:07;121.20;;;6.87;;
8411;SDS011;4243;49.296;11.348;2022-07-29T05:33:35;120.47;;;6.67;;
8411;SDS011;4243;49.296;11.348;2022-07-29T05:36:03;120.63;;;6.27;;
8411;SDS011;4243;49.296;11.348;2022-07-29T05:38:33;120.70;;;6.47;;
8411;SDS011;4243;49.296;11.348;2022-07-29T05:41:02;119.50;;;6.00;;
8411;SDS011;4243;49.296;11.348;2022-07-29T05:43:31;120.60;;;6.50;;
8411;SDS011;4243;49.296;11.348;2022-07-29T05:45:58;120.67;;;6.67;;
8411;SDS011;4243;49.296;11.348;2022-07-29T05:48:26;120.80;;;7.27;;
8411;SDS011;4243;49.296;11.348;2022-07-29T05:50:53;117.90;;;7.40;;
8411;SDS011;4243;49.296;11.348;2022-07-29T05:53:21;120.60;;;7.93;;
8411;SDS011;4243;49.296;11.348;2022-07-29T05:55:49;120.67;;;9.07;;
8411;SDS011;4243;49.296;11.348;2022-07-29T05:58:17;121.40;;;9.37;;
8411;SDS011;4243;49.296;11.348;2022-07-29T06:00:45;121.20;;;8.90;;
8411;SDS011;4243;49.296;11.348;2022-07-29T06:03:12;119.73;;;8.37;;
8411;SDS011;4243;49.296;11.348;2022-07-29T06:05:40;120.83;;;10.43;;
8411;SDS011;4243;49.296;11.348;2022-07-29T06:08:07;121.23;;;11.20;;
8411;SDS011;4243;49.296;11.348;2022-07-29T06:10:35;120.97;;;12.00;;
8411;SDS011;4243;49.296;11.348;2022-07-29T06:13:03;121.17;;;13.30;;
8411;SDS011;4243;49.296;11.348;2022-07-29T06:15:30;119.47;;;9.47;;
8411;SDS011;4243;49.296;11.348;2022-07-29T06:17:58;120.47;;;10.37;;
8411;SDS011;4243;49.296;11.348;2022-07-29T06:20:30;119.70;;;8.90;;
8411;SDS011;4243;49.296;11.348;2022-07-29T06:22:58;118.87;;;8.20;;
8411;SDS011;4243;49.296;11.348;2022-07-29T06:25:26;117.90;;;7.13;;
8411;SDS011;4243;49.296;11.348;2022-07-29T06:27:58;117.33;;;8.00;;
8411;SDS011;4243;49.296;11.348;2022-07-29T06:30:26;117.10;;;7.47;;
8411;SDS011;4243;49.296;11.348;2022-07-29T06:32:54;117.70;;;8.60;;
8411;SDS011;4243;49.296;11.348;2022-07-29T06:35:22;117.20;;;8.20;;
8411;SDS011;4243;49.296;11.348;2022-07-29T06:38:07;116.80;;;8.00;;
8411;SDS011;4243;49.296;11.348;2022-07-29T06:40:55;117.97;;;8.67;;
8411;SDS011;4243;49.296;11.348;2022-07-29T06:43:35;118.07;;;9.20;;
8411;SDS011;4243;49.296;11.348;2022-07-29T06:46:16;119.10;;;10.67;;
8411;SDS011;4243;49.296;11.348;2022-07-29T06:48:45;126.00;;;14.13;;
8411;SDS011;4243;49.296;11.348;2022-07-29T06:51:16;119.30;;;11.87;;
8411;SDS011;4243;49.296;11.348;2022-07-29T06:53:49;121.23;;;11.73;;
8411;SDS011;4243;49.296;11.348;2022-07-29T06:56:29;118.63;;;10.40;;
8411;SDS011;4243;49.296;11.348;2022-07-29T06:59:05;118.93;;;11.60;;
8411;SDS011;4243;49.296;11.348;2022-07-29T07:01:35;119.37;;;11.87;;
8411;SDS011;4243;49.296;11.348;2022-07-29T07:04:04;118.80;;;11.33;;
8411;SDS011;4243;49.296;11.348;2022-07-29T07:06:32;120.37;;;12.33;;
8411;SDS011;4243;49.296;11.348;2022-07-29T07:08:59;117.53;;;9.47;;
8411;SDS011;4243;49.296;11.348;2022-07-29T07:11:27;117.90;;;10.63;;
8411;SDS011;4243;49.296;11.348;2022-07-29T07:13:55;119.00;;;10.40;;
8411;SDS011;4243;49.296;11.348;2022-07-29T07:16:28;117.77;;;9.50;;
8411;SDS011;4243;49.296;11.348;2022-07-29T07:18:57;117.27;;;8.87;;
8411;SDS011;4243;49.296;11.348;2022-07-29T07:21:24;117.77;;;10.40;;
8411;SDS011;4243;49.296;11.348;2022-07-29T07:23:55;118.60;;;9.97;;
8411;SDS011;4243;49.296;11.348;2022-07-29T07:26:23;118.57;;;10.47;;
8411;SDS011;4243;49.296;11.348;2022-07-29T07:28:51;118.87;;;11.20;;
8411;SDS011;4243;49.296;11.348;2022-07-29T07:31:19;119.47;;;11.50;;
8411;SDS011;4243;49.296;11.348;2022-07-29T07:33:46;119.17;;;11.97;;
8411;SDS011;4243;49.296;11.348;2022-07-29T07:36:14;118.80;;;11.30;;
8411;SDS011;4243;49.296;11.348;2022-07-29T07:38:41;119.27;;;12.73;;
8411;SDS011;4243;49.296;11.348;2022-07-29T07:41:09;120.83;;;16.47;;
8411;SDS011;4243;49.296;11.348;2022-07-29T07:43:37;121.27;;;18.27;;
8411;SDS011;4243;49.296;11.348;2022-07-29T07:46:04;121.57;;;17.90;;
8411;SDS011;4243;49.296;11.348;2022-07-29T07:48:31;121.90;;;19.13;;
8411;SDS011;4243;49.296;11.348;2022-07-29T07:51:00;119.77;;;15.83;;
8411;SDS011;4243;49.296;11.348;2022-07-29T07:53:28;116.60;;;11.17;;
8411;SDS011;4243;49.296;11.348;2022-07-29T07:55:55;116.20;;;9.30;;
8411;SDS011;4243;49.296;11.348;2022-07-29T07:58:38;115.87;;;9.50;;
8411;SDS011;4243;49.296;11.348;2022-07-29T08:03:44;115.27;;;8.37;;
8411;SDS011;4243;49.296;11.348;2022-07-29T08:06:12;115.13;;;9.23;;
8411;SDS011;4243;49.296;11.348;2022-07-29T08:08:39;115.53;;;10.67;;
8411;SDS011;4243;49.296;11.348;2022-07-29T08:11:08;113.90;;;9.47;;
8411;SDS011;4243;49.296;11.348;2022-07-29T08:13:36;115.13;;;12.10;;
8411;SDS011;4243;49.296;11.348;2022-07-29T08:16:05;115.47;;;11.97;;
8411;SDS011;4243;49.296;11.348;2022-07-29T08:18:43;119.37;;;15.70;;
8411;SDS011;4243;49.296;11.348;2022-07-29T08:21:12;116.00;;;14.90;;
8411;SDS011;4243;49.296;11.348;2022-07-29T08:23:42;118.37;;;17.93;;
8411;SDS011;4243;49.296;11.348;2022-07-29T08:26:27;117.80;;;16.80;;
8411;SDS011;4243;49.296;11.348;2022-07-29T08:28:54;118.83;;;19.60;;
8411;SDS011;4243;49.296;11.348;2022-07-29T08:31:22;116.83;;;17.57;;
8411;SDS011;4243;49.296;11.348;2022-07-29T08:33:50;118.37;;;21.00;;
8411;SDS011;4243;49.296;11.348;2022-07-29T08:36:17;120.40;;;24.60;;
8411;SDS011;4243;49.296;11.348;2022-07-29T08:38:47;132.30;;;43.43;;
8411;SDS011;4243;49.296;11.348;2022-07-29T08:41:15;124.20;;;33.00;;
8411;SDS011;4243;49.296;11.348;2022-07-29T08:43:48;115.00;;;20.50;;
8411;SDS011;4243;49.296;11.348;2022-07-29T08:46:18;120.27;;;28.00;;
8411;SDS011;4243;49.296;11.348;2022-07-29T08:48:46;126.23;;;36.60;;
8411;SDS011;4243;49.296;11.348;2022-07-29T08:51:16;120.33;;;28.53;;
8411;SDS011;4243;49.296;11.348;2022-07-29T08:53:46;120.93;;;27.97;;
8411;SDS011;4243;49.296;11.348;2022-07-29T08:56:16;116.93;;;22.87;;
8411;SDS011;4243;49.296;11.348;2022-07-29T08:58:46;119.33;;;25.57;;
8411;SDS011;4243;49.296;11.348;2022-07-29T09:01:17;118.53;;;26.00;;
8411;SDS011;4243;49.296;11.348;2022-07-29T09:04:02;125.77;;;37.10;;
8411;SDS011;4243;49.296;11.348;2022-07-29T09:06:34;121.57;;;33.37;;
8411;SDS011;4243;49.296;11.348;2022-07-29T09:09:09;121.77;;;31.97;;
8411;SDS011;4243;49.296;11.348;2022-07-29T09:11:39;122.50;;;33.00;;
8411;SDS011;4243;49.296;11.348;2022-07-29T09:14:07;126.30;;;34.87;;
8411;SDS011;4243;49.296;11.348;2022-07-29T09:16:43;121.97;;;33.60;;
8411;SDS011;4243;49.296;11.348;2022-07-29T09:19:27;118.30;;;28.97;;
8411;SDS011;4243;49.296;11.348;2022-07-29T09:22:04;117.57;;;27.90;;
8411;SDS011;4243;49.296;11.348;2022-07-29T09:27:01;118.87;;;32.70;;
8411;SDS011;4243;49.296;11.348;2022-07-29T09:29:28;121.57;;;34.70;;
8411;SDS011;4243;49.296;11.348;2022-07-29T09:32:01;121.63;;;32.50;;
8411;SDS011;4243;49.296;11.348;2022-07-29T09:34:36;123.87;;;36.10;;
8411;SDS011;4243;49.296;11.348;2022-07-29T09:37:04;119.67;;;28.97;;
8411;SDS011;4243;49.296;11.348;2022-07-29T09:42:05;121.10;;;33.20;;
8411;SDS011;4243;49.296;11.348;2022-07-29T09:44:51;120.63;;;28.80;;
8411;SDS011;4243;49.296;11.348;2022-07-29T09:47:19;119.57;;;27.77;;
8411;SDS011;4243;49.296;11.348;2022-07-29T09:49:54;118.30;;;27.20;;
8411;SDS011;4243;49.296;11.348;2022-07-29T09:52:27;121.20;;;32.17;;
8411;SDS011;4243;49.296;11.348;2022-07-29T09:55:05;117.70;;;27.47;;
8411;SDS011;4243;49.296;11.348;2022-07-29T09:57:44;118.40;;;29.30;;
8411;SDS011;4243;49.296;11.348;2022-07-29T10:00:14;117.57;;;29.60;;
8411;SDS011;4243;49.296;11.348;2022-07-29T10:02:45;116.00;;;28.60;;
8411;SDS011;4243;49.296;11.348;2022-07-29T10:05:21;113.70;;;27.10;;
8411;SDS011;4243;49.296;11.348;2022-07-29T10:10:34;122.47;;;38.40;;
8411;SDS011;4243;49.296;11.348;2022-07-29T10:13:09;114.50;;;30.47;;
8411;SDS011;4243;49.296;11.348;2022-07-29T10:15:42;115.30;;;32.57;;
8411;SDS011;4243;49.296;11.348;2022-07-29T10:18:12;113.73;;;30.50;;
8411;SDS011;4243;49.296;11.348;2022-07-29T10:20:43;114.37;;;30.60;;
8411;SDS011;4243;49.296;11.348;2022-07-29T10:23:11;113.30;;;28.20;;
8411;SDS011;4243;49.296;11.348;2022-07-29T10:25:41;125.30;;;33.77;;
8411;SDS011;4243;49.296;11.348;2022-07-29T10:28:11;127.60;;;46.50;;
8411;SDS011;4243;49.296;11.348;2022-07-29T10:30:42;126.90;;;45.90;;
8411;SDS011;4243;49.296;11.348;2022-07-29T10:39:27;126.67;;;46.50;;
8411;SDS011;4243;49.296;11.348;2022-07-29T10:42:50;122.90;;;41.20;;
8411;SDS011;4243;49.296;11.348;2022-07-29T10:45:20;122.00;;;40.77;;
8411;SDS011;4243;49.296;11.348;2022-07-29T10:47:48;115.87;;;31.87;;
8411;SDS011;4243;49.296;11.348;2022-07-29T10:50:51;113.80;;;28.00;;
8411;SDS011;4243;49.296;11.348;2022-07-29T10:56:29;104.23;;;14.43;;
8411;SDS011;4243;49.296;11.348;2022-07-29T11:01:48;101.30;;;11.17;;
8411;SDS011;4243;49.296;11.348;2022-07-29T11:04:58;102.00;;;12.90;;
8411;SDS011;4243;49.296;11.348;2022-07-29T11:07:12;102.10;;;12.60;;
8411;SDS011;4243;49.296;11.348;2022-07-29T11:09:42;102.37;;;13.30;;
8411;SDS011;4243;49.296;11.348;2022-07-29T11:12:45;100.63;;;11.93;;
8411;SDS011;4243;49.296;11.348;2022-07-29T11:28:54;100.27;;;7.87;;
8411;SDS011;4243;49.296;11.348;2022-07-29T11:31:41;102.27;;;8.90;;
8411;SDS011;4243;49.296;11.348;2022-07-29T11:34:22;106.50;;;13.80;;
8411;SDS011;4243;49.296;11.348;2022-07-29T11:39:47;125.50;;;43.23;;
8411;SDS011;4243;49.296;11.348;2022-07-29T11:45:19;134.77;;;53.77;;
8411;SDS011;4243;49.296;11.348;2022-07-29T11:48:17;135.40;;;57.90;;
8411;SDS011;4243;49.296;11.348;2022-07-29T11:50:57;143.67;;;69.70;;
8411;SDS011;4243;49.296;11.348;2022-07-29T11:53:25;148.47;;;77.17;;
8411;SDS011;4243;49.296;11.348;2022-07-29T11:55:58;142.00;;;67.83;;
8411;SDS011;4243;49.296;11.348;2022-07-29T11:58:28;133.53;;;54.67;;
8411;SDS011;4243;49.296;11.348;2022-07-29T12:00:56;127.90;;;48.77;;
8411;SDS011;4243;49.296;11.348;2022-07-29T12:03:30;126.00;;;45.57;;
8411;SDS011;4243;49.296;11.348;2022-07-29T12:06:02;130.97;;;52.20;;
8411;SDS011;4243;49.296;11.348;2022-07-29T12:08:41;128.27;;;48.60;;
8411;SDS011;4243;49.296;11.348;2022-07-29T12:11:16;127.30;;;45.37;;
8411;SDS011;4243;49.296;11.348;2022-07-29T12:13:47;131.93;;;52.07;;
8411;SDS011;4243;49.296;11.348;2022-07-29T12:16:18;132.03;;;49.50;;
8411;SDS011;4243;49.296;11.348;2022-07-29T12:18:58;144.67;;;68.17;;
8411;SDS011;4243;49.296;11.348;2022-07-29T12:21:33;136.90;;;59.13;;
8411;SDS011;4243;49.296;11.348;2022-07-29T12:24:21;133.07;;;52.17;;
8411;SDS011;4243;49.296;11.348;2022-07-29T12:29:21;128.93;;;42.80;;
8411;SDS011;4243;49.296;11.348;2022-07-29T12:32:01;118.97;;;20.57;;
8411;SDS011;4243;49.296;11.348;2022-07-29T12:34:44;115.03;;;10.90;;
8411;SDS011;4243;49.296;11.348;2022-07-29T12:37:12;115.07;;;9.70;;
8411;SDS011;4243;49.296;11.348;2022-07-29T12:39:40;113.80;;;8.53;;
8411;SDS011;4243;49.296;11.348;2022-07-29T12:42:11;114.40;;;7.67;;
8411;SDS011;4243;49.296;11.348;2022-07-29T12:44:44;114.47;;;7.17;;
8411;SDS011;4243;49.296;11.348;2022-07-29T12:47:17;116.00;;;9.00;;
8411;SDS011;4243;49.296;11.348;2022-07-29T12:49:46;116.70;;;10.70;;
8411;SDS011;4243;49.296;11.348;2022-07-29T12:54:57;120.57;;;16.97;;
8411;SDS011;4243;49.296;11.348;2022-07-29T12:57:24;122.90;;;21.27;;
8411;SDS011;4243;49.296;11.348;2022-07-29T13:02:39;121.07;;;16.80;;
8411;SDS011;4243;49.296;11.348;2022-07-29T13:05:10;122.23;;;17.70;;
8411;SDS011;4243;49.296;11.348;2022-07-29T13:07:39;123.30;;;19.60;;
8411;SDS011;4243;49.296;11.348;2022-07-29T13:10:22;122.27;;;17.17;;
8411;SDS011;4243;49.296;11.348;2022-07-29T13:13:10;120.17;;;13.30;;
8411;SDS011;4243;49.296;11.348;2022-07-29T13:15:44;120.30;;;12.40;;
8411;SDS011;4243;49.296;11.348;2022-07-29T13:18:31;122.70;;;16.97;;
8411;SDS011;4243;49.296;11.348;2022-07-29T13:21:10;123.93;;;18.80;;
8411;SDS011;4243;49.296;11.348;2022-07-29T13:23:40;123.83;;;18.73;;
8411;SDS011;4243;49.296;11.348;2022-07-29T13:26:09;124.37;;;19.60;;
8411;SDS011;4243;49.296;11.348;2022-07-29T13:28:41;123.30;;;18.00;;
8411;SDS011;4243;49.296;11.348;2022-07-29T13:31:09;126.07;;;22.67;;
8411;SDS011;4243;49.296;11.348;2022-07-29T13:33:37;122.20;;;16.60;;
8411;SDS011;4243;49.296;11.348;2022-07-29T13:36:05;120.43;;;13.60;;
8411;SDS011;4243;49.296;11.348;2022-07-29T13:38:36;118.87;;;10.67;;
8411;SDS011;4243;49.296;11.348;2022-07-29T13:41:03;119.17;;;10.27;;
8411;SDS011;4243;49.296;11.348;2022-07-29T13:43:32;118.53;;;9.17;;
8411;SDS011;4243;49.296;11.348;2022-07-29T13:45:59;123.90;;;9.87;;
8411;SDS011;4243;49.296;11.348;2022-07-29T13:48:27;119.23;;;11.00;;
8411;SDS011;4243;49.296;11.348;2022-07-29T13:50:54;119.97;;;10.97;;
8411;SDS011;4243;49.296;11.348;2022-07-29T13:53:22;120.30;;;12.47;;
8411;SDS011;4243;49.296;11.348;2022-07-29T13:55:52;118.70;;;9.40;;
8411;SDS011;4243;49.296;11.348;2022-07-29T13:58:21;119.67;;;10.70;;
8411;SDS011;4243;49.296;11.348;2022-07-29T14:00:48;118.40;;;9.43;;
8411;SDS011;4243;49.296;11.348;2022-07-29T14:03:16;119.50;;;10.17;;
8411;SDS011;4243;49.296;11.348;2022-07-29T14:05:44;120.80;;;12.77;;
8411;SDS011;4243;49.296;11.348;2022-07-29T14:08:11;122.10;;;14.00;;
8411;SDS011;4243;49.296;11.348;2022-07-29T14:10:39;122.10;;;14.80;;
8411;SDS011;4243;49.296;11.348;2022-07-29T14:13:07;121.57;;;15.03;;
8411;SDS011;4243;49.296;11.348;2022-07-29T14:15:51;120.27;;;13.70;;
8411;SDS011;4243;49.296;11.348;2022-07-29T14:18:18;120.43;;;12.93;;
8411;SDS011;4243;49.296;11.348;2022-07-29T14:20:49;120.47;;;13.00;;
8411;SDS011;4243;49.296;11.348;2022-07-29T14:23:17;118.67;;;10.27;;
8411;SDS011;4243;49.296;11.348;2022-07-29T14:25:45;118.30;;;10.23;;
8411;SDS011;4243;49.296;11.348;2022-07-29T14:28:14;119.33;;;10.87;;
8411;SDS011;4243;49.296;11.348;2022-07-29T14:30:45;120.60;;;11.90;;
8411;SDS011;4243;49.296;11.348;2022-07-29T14:33:12;118.03;;;10.57;;
8411;SDS011;4243;49.296;11.348;2022-07-29T14:35:40;117.90;;;10.43;;
8411;SDS011;4243;49.296;11.348;2022-07-29T14:38:07;116.77;;;9.80;;
8411;SDS011;4243;49.296;11.348;2022-07-29T14:40:35;116.60;;;10.00;;
8411;SDS011;4243;49.296;11.348;2022-07-29T14:43:02;118.97;;;15.97;;
8411;SDS011;4243;49.296;11.348;2022-07-29T14:45:30;119.80;;;16.97;;
8411;SDS011;4243;49.296;11.348;2022-07-29T14:47:57;119.17;;;16.17;;
8411;SDS011;4243;49.296;11.348;2022-07-29T14:50:26;118.03;;;14.13;;
8411;SDS011;4243;49.296;11.348;2022-07-29T14:52:57;117.90;;;14.03;;
8411;SDS011;4243;49.296;11.348;2022-07-29T14:55:26;117.77;;;12.47;;
8411;SDS011;4243;49.296;11.348;2022-07-29T14:57:54;119.87;;;16.57;;
8411;SDS011;4243;49.296;11.348;2022-07-29T15:00:34;119.40;;;16.63;;
8411;SDS011;4243;49.296;11.348;2022-07-29T15:03:03;118.87;;;15.67;;
8411;SDS011;4243;49.296;11.348;2022-07-29T15:05:32;118.90;;;15.57;;
8411;SDS011;4243;49.296;11.348;2022-07-29T15:07:59;115.97;;;11.70;;
8411;SDS011;4243;49.296;11.348;2022-07-29T15:10:27;116.27;;;12.70;;
8411;SDS011;4243;49.296;11.348;2022-07-29T15:12:55;119.27;;;18.70;;
8411;SDS011;4243;49.296;11.348;2022-07-29T15:15:22;119.37;;;20.93;;
8411;SDS011;4243;49.296;11.348;2022-07-29T15:17:50;121.83;;;27.37;;
8411;SDS011;4243;49.296;11.348;2022-07-29T15:20:18;122.57;;;28.53;;
8411;SDS011;4243;49.296;11.348;2022-07-29T15:22:45;119.37;;;22.57;;
8411;SDS011;4243;49.296;11.348;2022-07-29T15:25:13;119.87;;;23.80;;
8411;SDS011;4243;49.296;11.348;2022-07-29T15:27:40;120.90;;;25.70;;
8411;SDS011;4243;49.296;11.348;2022-07-29T15:30:14;129.57;;;38.90;;
8411;SDS011;4243;49.296;11.348;2022-07-29T15:32:59;130.47;;;42.33;;
8411;SDS011;4243;49.296;11.348;2022-07-29T15:35:29;124.60;;;33.10;;
8411;SDS011;4243;49.296;11.348;2022-07-29T15:37:56;119.30;;;25.40;;
8411;SDS011;4243;49.296;11.348;2022-07-29T15:40:24;119.83;;;24.10;;
8411;SDS011;4243;49.296;11.348;2022-07-29T15:42:51;118.90;;;23.60;;
8411;SDS011;4243;49.296;11.348;2022-07-29T15:45:20;120.00;;;23.17;;
8411;SDS011;4243;49.296;11.348;2022-07-29T15:47:47;120.10;;;24.17;;
8411;SDS011;4243;49.296;11.348;2022-07-29T15:50:15;119.70;;;22.90;;